Terminal Aerodrome Forecast
Issued by NWS Shreveport, LA

Home | Current Version | Previous Version | Text Only | Print | Product List | Glossary On
Versions: 1 2 3 4 5 6 7 8 9 10 11 12 13 14 15 16 17 18 19
000
FTUS44 KSHV 291723
TAFMLU
TAF
KMLU 291723Z 2918/3018 VRB04KT P6SM BKN040
     FM300000 VRB03KT P6SM FEW050 SCT150 SCT250
      TEMPO 3010/3014 5SM BR
     FM301500 11004KT P6SM SCT030 SCT250=

USA.gov is the U.S. government's official web portal to all federal, state and local government web resources and services.